Wetterdaten: Woche 02.03.15 - 08.03.15 (KW10)
Datum Zeit Temp. A. Feuchte A. Luftdruck Regen Wind Richtung Taupunkt Windchill Windben
02.03.2015 00:00 6,8 C 85 % 1009,5 hPa 0,0 l/m 0,1 km/h N 4,5 C 6,8 C 1,6 km/h
02.03.2015 01:00 6,3 C 85 % 1008,7 hPa 0,0 l/m 0,4 km/h N 4,0 C 6,3 C 4,4 km/h
02.03.2015 02:00 6,3 C 85 % 1007,9 hPa 0,0 l/m 0,1 km/h N 4,0 C 6,3 C 2,8 km/h
02.03.2015 03:00 6,4 C 85 % 1007,4 hPa 0,3 l/m 0,1 km/h N 4,1 C 6,4 C 2,0 km/h
02.03.2015 04:00 7,1 C 85 % 1007,1 hPa 0,3 l/m 0,9 km/h N 4,8 C 7,1 C 5,6 km/h
02.03.2015 05:00 7,0 C 85 % 1005,8 hPa 0,0 l/m 0,1 km/h N 4,6 C 7,0 C 2,4 km/h
02.03.2015 06:00 6,7 C 85 % 1004,9 hPa 0,0 l/m 0,3 km/h N 4,4 C 6,7 C 3,6 km/h
02.03.2015 07:00 7,1 C 83 % 1005,0 hPa 0,0 l/m 2,2 km/h N 4,4 C 7,1 C 8,4 km/h
02.03.2015 08:00 7,9 C 80 % 1004,0 hPa 0,0 l/m 0,5 km/h N 4,7 C 7,9 C 4,4 km/h
02.03.2015 09:00 9,4 C 78 % 1003,6 hPa 0,0 l/m 1,3 km/h N 5,7 C 9,4 C 12,4 km/h
02.03.2015 10:00 12,5 C 66 % 1003,1 hPa 0,0 l/m 12,1 km/h N 6,3 C 9,4 C 31,4 km/h
02.03.2015 11:00 12,6 C 64 % 1002,5 hPa 0,0 l/m 13,8 km/h N 5,9 C 8,9 C 34,6 km/h
02.03.2015 12:00 12,5 C 65 % 1003,9 hPa 0,0 l/m 16,8 km/h N 6,0 C 7,5 C 41,0 km/h
02.03.2015 13:00 6,9 C 82 % 1006,7 hPa 2,1 l/m 12,2 km/h N 4,0 C 3,0 C 29,8 km/h
02.03.2015 14:00 6,3 C 83 % 1006,8 hPa 0,3 l/m 7,3 km/h N 3,5 C 5,4 C 20,5 km/h
02.03.2015 15:00 7,0 C 81 % 1006,6 hPa 0,0 l/m 5,1 km/h N 3,9 C 7,0 C 16,9 km/h
02.03.2015 16:00 7,6 C 75 % 1006,5 hPa 0,0 l/m 11,6 km/h N 3,5 C 4,0 C 33,4 km/h
02.03.2015 17:00 7,1 C 73 % 1007,0 hPa 0,0 l/m 16,1 km/h N 2,5 C 1,1 C 39,0 km/h
02.03.2015 18:00 6,7 C 71 % 1008,1 hPa 0,0 l/m 15,9 km/h N 1,8 C 0,8 C 40,2 km/h
02.03.2015 19:00 6,4 C 71 % 1009,2 hPa 0,0 l/m 13,4 km/h N 1,4 C 1,6 C 33,0 km/h
02.03.2015 20:00 6,4 C 68 % 1010,1 hPa 0,0 l/m 12,9 km/h N 1,0 C 2,1 C 36,6 km/h
02.03.2015 21:00 6,9 C 66 % 1010,3 hPa 0,0 l/m 19,5 km/h N 1,0 C -0,5 C 46,3 km/h
02.03.2015 22:00 6,9 C 66 % 1010,3 hPa 0,0 l/m 21,4 km/h N 0,9 C -1,2 C 43,8 km/h
02.03.2015 23:00 6,9 C 62 % 1011,2 hPa 0,0 l/m 17,5 km/h N 0,2 C 0,3 C 35,0 km/h
03.03.2015 00:00 6,9 C 63 % 1013,4 hPa 0,0 l/m 14,0 km/h N 0,2 C 1,9 C 36,6 km/h
03.03.2015 01:00 6,2 C 64 % 1014,9 hPa 0,0 l/m 15,9 km/h N -0,2 C 0,0 C 37,4 km/h
03.03.2015 02:00 5,1 C 71 % 1016,5 hPa 0,0 l/m 13,3 km/h N 0,1 C 0,2 C 33,4 km/h
03.03.2015 03:00 3,9 C 68 % 1018,1 hPa 0,0 l/m 10,4 km/h N -1,4 C 0,6 C 31,0 km/h
03.03.2015 04:00 3,4 C 70 % 1019,0 hPa 0,0 l/m 8,2 km/h N -1,6 C 1,7 C 24,5 km/h
03.03.2015 05:00 3,7 C 70 % 1019,5 hPa 0,0 l/m 9,8 km/h N -1,2 C 1,0 C 29,4 km/h
03.03.2015 06:00 3,7 C 70 % 1020,2 hPa 0,0 l/m 12,9 km/h N -1,3 C -1,3 C 31,0 km/h
03.03.2015 07:00 3,8 C 67 % 1021,0 hPa 0,0 l/m 9,8 km/h N -1,8 C 0,9 C 28,2 km/h
03.03.2015 08:00 4,6 C 65 % 1021,7 hPa 0,0 l/m 11,8 km/h N -1,4 C 0,4 C 32,2 km/h
03.03.2015 09:00 5,3 C 58 % 1022,2 hPa 0,0 l/m 16,9 km/h N -2,3 C -1,4 C 43,0 km/h
03.03.2015 10:00 6,5 C 54 % 1022,5 hPa 0,0 l/m 17,0 km/h N -2,2 C 0,0 C 37,8 km/h
03.03.2015 11:00 7,6 C 52 % 1022,6 hPa 0,0 l/m 14,0 km/h N -1,5 C 2,7 C 36,6 km/h
03.03.2015 12:00 8,0 C 51 % 1022,5 hPa 0,0 l/m 15,9 km/h N -1,6 C 2,3 C 34,6 km/h
03.03.2015 13:00 8,1 C 50 % 1022,4 hPa 0,0 l/m 14,7 km/h N -1,9 C 3,0 C 37,4 km/h
03.03.2015 14:00 8,3 C 49 % 1022,4 hPa 0,0 l/m 14,8 km/h N -1,8 C 3,1 C 34,6 km/h
03.03.2015 15:00 8,8 C 48 % 1022,0 hPa 0,0 l/m 13,1 km/h N -1,6 C 4,7 C 31,0 km/h
03.03.2015 16:00 8,8 C 46 % 1022,0 hPa 0,0 l/m 10,4 km/h N -2,1 C 6,0 C 27,3 km/h
03.03.2015 17:00 8,1 C 47 % 1022,3 hPa 0,0 l/m 4,8 km/h N -2,4 C 8,1 C 17,7 km/h
03.03.2015 18:00 6,5 C 52 % 1022,8 hPa 0,0 l/m 0,3 km/h N -2,7 C 6,5 C 2,8 km/h
03.03.2015 19:00 3,7 C 60 % 1023,3 hPa 0,0 l/m 0,0 km/h N -3,4 C 3,7 C 0,0 km/h
03.03.2015 20:00 1,6 C 69 % 1023,2 hPa 0,0 l/m 0,1 km/h N -3,5 C 1,6 C 2,4 km/h
03.03.2015 21:00 1,0 C 71 % 1023,0 hPa 0,0 l/m 0,0 km/h N -3,6 C 1,0 C 2,0 km/h
03.03.2015 22:00 -0,3 C 75 % 1022,8 hPa 0,0 l/m 0,1 km/h N -4,2 C -0,3 C 2,4 km/h
03.03.2015 23:00 -1,2 C 78 % 1022,2 hPa 0,0 l/m 0,4 km/h N -4,6 C -1,2 C 2,4 km/h
04.03.2015 00:00 -1,7 C 78 % 1021,6 hPa 0,0 l/m 0,0 km/h N -5,0 C -1,7 C 1,2 km/h
04.03.2015 01:00 -2,3 C 79 % 1021,3 hPa 0,0 l/m 0,0 km/h N -5,4 C -2,3 C 0,0 km/h
04.03.2015 02:00 -2,5 C 81 % 1020,7 hPa 0,0 l/m 0,1 km/h N -5,3 C -2,5 C 2,4 km/h
04.03.2015 03:00 -1,8 C 83 % 1020,2 hPa 0,0 l/m 0,0 km/h N -4,4 C -1,8 C 0,8 km/h
04.03.2015 04:00 -1,1 C 83 % 1019,6 hPa 0,0 l/m 0,2 km/h N -3,6 C -1,1 C 2,8 km/h
04.03.2015 05:00 -0,7 C 80 % 1020,0 hPa 0,0 l/m 0,6 km/h N -3,7 C -0,7 C 4,0 km/h
04.03.2015 06:00 1,9 C 67 % 1020,5 hPa 0,0 l/m 2,4 km/h N -3,6 C 1,9 C 11,7 km/h
04.03.2015 07:00 6,2 C 68 % 1021,3 hPa 0,0 l/m 8,1 km/h N 0,8 C 4,8 C 25,3 km/h
04.03.2015 08:00 5,6 C 75 % 1022,4 hPa 0,0 l/m 9,4 km/h N 1,5 C 3,2 C 31,0 km/h
04.03.2015 09:00 6,1 C 70 % 1023,3 hPa 0,0 l/m 9,1 km/h N 1,0 C 4,0 C 24,9 km/h
04.03.2015 10:00 6,4 C 68 % 1023,9 hPa 0,0 l/m 12,6 km/h N 1,0 C 2,1 C 29,4 km/h
04.03.2015 11:00 7,8 C 63 % 1024,0 hPa 0,0 l/m 13,8 km/h N 1,2 C 3,1 C 36,6 km/h
04.03.2015 12:00 8,5 C 60 % 1024,1 hPa 0,0 l/m 14,7 km/h N 1,0 C 3,5 C 35,0 km/h
04.03.2015 13:00 9,4 C 52 % 1024,0 hPa 0,0 l/m 11,3 km/h N -0,1 C 6,2 C 32,2 km/h
04.03.2015 14:00 8,6 C 54 % 1023,8 hPa 0,0 l/m 9,6 km/h N -0,2 C 6,4 C 25,8 km/h
04.03.2015 15:00 8,8 C 52 % 1023,5 hPa 0,0 l/m 10,9 km/h N -0,5 C 5,9 C 26,9 km/h
04.03.2015 16:00 8,2 C 54 % 1023,8 hPa 0,0 l/m 9,8 km/h N -0,5 C 5,8 C 25,8 km/h
04.03.2015 17:00 7,3 C 56 % 1024,1 hPa 0,0 l/m 6,4 km/h N -0,9 C 6,8 C 19,3 km/h
04.03.2015 18:00 6,3 C 61 % 1024,9 hPa 0,0 l/m 6,6 km/h N -0,6 C 5,6 C 19,7 km/h
04.03.2015 19:00 5,6 C 63 % 1025,6 hPa 0,0 l/m 5,2 km/h N -1,0 C 5,6 C 16,9 km/h
04.03.2015 20:00 5,0 C 66 % 1026,0 hPa 0,0 l/m 3,8 km/h N -0,8 C 5,0 C 13,7 km/h
04.03.2015 21:00 4,6 C 67 % 1026,0 hPa 0,0 l/m 2,8 km/h N -1,0 C 4,6 C 10,9 km/h
04.03.2015 22:00 4,3 C 67 % 1026,3 hPa 0,0 l/m 1,8 km/h N -1,4 C 4,3 C 8,4 km/h
04.03.2015 23:00 3,9 C 67 % 1027,0 hPa 0,0 l/m 1,4 km/h N -1,6 C 3,9 C 6,8 km/h
05.03.2015 00:00 4,2 C 67 % 1027,3 hPa 0,0 l/m 3,9 km/h N -1,4 C 4,2 C 12,1 km/h
05.03.2015 01:00 4,2 C 67 % 1027,6 hPa 0,0 l/m 5,2 km/h N -1,5 C 4,2 C 15,7 km/h
05.03.2015 02:00 3,9 C 67 % 1027,8 hPa 0,0 l/m 3,8 km/h N -1,6 C 3,9 C 14,1 km/h
05.03.2015 03:00 3,3 C 70 % 1027,8 hPa 0,0 l/m 2,5 km/h N -1,8 C 3,3 C 10,1 km/h
05.03.2015 04:00 3,6 C 68 % 1027,8 hPa 0,0 l/m 6,5 km/h N -1,7 C 3,0 C 16,9 km/h
05.03.2015 05:00 3,5 C 69 % 1028,0 hPa 0,0 l/m 7,0 km/h N -1,6 C 2,9 C 16,1 km/h
05.03.2015 06:00 3,3 C 69 % 1028,4 hPa 0,0 l/m 4,5 km/h N -1,8 C 3,3 C 14,1 km/h
05.03.2015 07:00 3,5 C 69 % 1029,0 hPa 0,0 l/m 4,3 km/h N -1,6 C 3,5 C 13,3 km/h
05.03.2015 08:00 3,8 C 70 % 1029,4 hPa 0,0 l/m 5,2 km/h N -1,2 C 3,2 C 16,5 km/h
05.03.2015 09:00 5,0 C 64 % 1029,4 hPa 0,0 l/m 12,0 km/h N -1,3 C 0,9 C 29,0 km/h
05.03.2015 10:00 5,7 C 63 % 1029,3 hPa 0,0 l/m 11,3 km/h N -0,9 C 2,0 C 27,0 km/h
05.03.2015 11:00 6,5 C 60 % 1029,2 hPa 0,0 l/m 9,9 km/h N -0,6 C 3,9 C 27,0 km/h
05.03.2015 12:00 6,2 C 62 % 1029,0 hPa 0,0 l/m 7,9 km/h N -0,7 C 5,0 C 21,7 km/h
05.03.2015 13:00 6,4 C 59 % 1028,8 hPa 0,0 l/m 9,4 km/h N -1,2 C 4,0 C 24,1 km/h
05.03.2015 14:00 6,4 C 60 % 1028,8 hPa 0,0 l/m 10,2 km/h N -0,8 C 3,5 C 24,1 km/h
05.03.2015 15:00 6,0 C 64 % 1028,9 hPa 0,0 l/m 9,9 km/h N -0,2 C 3,4 C 25,4 km/h
05.03.2015 16:00 6,0 C 62 % 1029,1 hPa 0,0 l/m 8,8 km/h N -0,6 C 4,1 C 22,1 km/h
05.03.2015 17:00 5,3 C 63 % 1029,7 hPa 0,0 l/m 7,9 km/h N -1,2 C 4,1 C 20,5 km/h
05.03.2015 18:00 4,9 C 62 % 1030,5 hPa 0,0 l/m 8,8 km/h N -1,8 C 2,9 C 22,5 km/h
05.03.2015 19:00 4,8 C 65 % 1031,2 hPa 0,0 l/m 8,5 km/h N -1,3 C 3,1 C 22,1 km/h
05.03.2015 20:00 4,7 C 67 % 1031,6 hPa 0,0 l/m 7,6 km/h N -1,0 C 3,6 C 20,1 km/h
05.03.2015 21:00 4,3 C 67 % 1031,7 hPa 0,0 l/m 11,1 km/h N -1,3 C 0,6 C 26,5 km/h
05.03.2015 22:00 3,7 C 67 % 1032,6 hPa 0,0 l/m 7,7 km/h N -1,9 C 2,5 C 21,7 km/h
05.03.2015 23:00 3,5 C 65 % 1033,1 hPa 0,0 l/m 6,8 km/h N -2,4 C 3,1 C 20,9 km/h
06.03.2015 00:00 2,8 C 67 % 1033,1 hPa 0,0 l/m 4,6 km/h N -2,7 C 2,8 C 16,1 km/h
06.03.2015 01:00 2,5 C 68 % 1033,4 hPa 0,0 l/m 4,3 km/h N -2,9 C 2,5 C 16,1 km/h
06.03.2015 02:00 2,8 C 66 % 1033,4 hPa 0,0 l/m 7,9 km/h N -2,9 C 1,3 C 20,5 km/h
06.03.2015 03:00 2,7 C 68 % 1033,3 hPa 0,0 l/m 5,1 km/h N -2,7 C 2,7 C 17,3 km/h
06.03.2015 04:00 2,2 C 69 % 1033,4 hPa 0,0 l/m 4,6 km/h N -2,9 C 2,2 C 15,7 km/h
06.03.2015 05:00 1,8 C 71 % 1033,6 hPa 0,0 l/m 5,9 km/h N -3,0 C 1,6 C 15,7 km/h
06.03.2015 06:00 2,0 C 73 % 1034,0 hPa 0,0 l/m 5,7 km/h N -2,3 C 2,0 C 16,5 km/h
06.03.2015 07:00 2,3 C 75 % 1034,3 hPa 0,0 l/m 5,7 km/h N -1,7 C 2,2 C 16,5 km/h
06.03.2015 08:00 3,2 C 75 % 1034,8 hPa 0,0 l/m 7,2 km/h N -0,8 C 2,4 C 17,7 km/h
06.03.2015 09:00 3,8 C 74 % 1035,3 hPa 0,0 l/m 7,6 km/h N -0,4 C 2,7 C 20,5 km/h
06.03.2015 10:00 5,2 C 70 % 1035,3 hPa 0,0 l/m 8,9 km/h N 0,2 C 3,1 C 22,9 km/h
06.03.2015 11:00 5,6 C 65 % 1035,0 hPa 0,0 l/m 9,0 km/h N -0,4 C 3,6 C 23,3 km/h
06.03.2015 12:00 6,5 C 60 % 1034,9 hPa 0,0 l/m 9,4 km/h N -0,8 C 4,1 C 24,1 km/h
06.03.2015 13:00 7,0 C 54 % 1034,6 hPa 0,0 l/m 11,8 km/h N -1,6 C 3,2 C 27,0 km/h
06.03.2015 14:00 7,1 C 51 % 1034,2 hPa 0,0 l/m 10,4 km/h N -2,4 C 4,1 C 23,7 km/h
06.03.2015 15:00 6,9 C 51 % 1033,9 hPa 0,0 l/m 8,9 km/h N -2,6 C 4,9 C 22,1 km/h
06.03.2015 16:00 6,7 C 50 % 1033,7 hPa 0,0 l/m 6,1 km/h N -3,0 C 6,3 C 19,7 km/h
06.03.2015 17:00 5,9 C 53 % 1033,7 hPa 0,0 l/m 1,9 km/h N -3,0 C 5,9 C 8,9 km/h
06.03.2015 18:00 4,5 C 58 % 1034,3 hPa 0,0 l/m 0,3 km/h N -3,1 C 4,5 C 3,2 km/h
06.03.2015 19:00 3,3 C 64 % 1034,6 hPa 0,0 l/m 1,6 km/h N -2,8 C 3,3 C 6,4 km/h
06.03.2015 20:00 4,5 C 65 % 1034,6 hPa 0,0 l/m 5,3 km/h N -1,5 C 4,5 C 13,3 km/h
06.03.2015 21:00 4,6 C 65 % 1034,9 hPa 0,0 l/m 4,7 km/h N -1,4 C 4,6 C 14,5 km/h
06.03.2015 22:00 4,1 C 68 % 1035,5 hPa 0,0 l/m 2,0 km/h N -1,3 C 4,1 C 8,1 km/h
06.03.2015 23:00 3,9 C 71 % 1035,6 hPa 0,0 l/m 3,7 km/h N -0,8 C 3,9 C 13,3 km/h
07.03.2015 00:00 3,8 C 73 % 1035,6 hPa 0,0 l/m 2,6 km/h N -0,7 C 3,8 C 9,3 km/h
07.03.2015 01:00 4,2 C 74 % 1035,3 hPa 0,0 l/m 3,1 km/h N -0,1 C 4,2 C 11,3 km/h
07.03.2015 02:00 4,6 C 73 % 1034,8 hPa 0,0 l/m 2,1 km/h N 0,2 C 4,6 C 8,1 km/h
07.03.2015 03:00 4,6 C 74 % 1034,6 hPa 0,0 l/m 2,0 km/h N 0,3 C 4,6 C 8,4 km/h
07.03.2015 04:00 4,6 C 75 % 1034,7 hPa 0,0 l/m 2,0 km/h N 0,4 C 4,6 C 7,2 km/h
07.03.2015 05:00 4,5 C 75 % 1034,6 hPa 0,0 l/m 1,8 km/h N 0,3 C 4,5 C 6,8 km/h
07.03.2015 06:00 4,6 C 75 % 1034,7 hPa 0,0 l/m 2,8 km/h N 0,6 C 4,6 C 8,0 km/h
07.03.2015 07:00 4,8 C 75 % 1035,5 hPa 0,0 l/m 2,3 km/h N 0,8 C 4,8 C 8,4 km/h
07.03.2015 08:00 5,4 C 73 % 1035,6 hPa 0,0 l/m 3,1 km/h N 0,9 C 5,4 C 9,7 km/h
07.03.2015 09:00 6,4 C 70 % 1035,4 hPa 0,0 l/m 3,5 km/h N 1,4 C 6,4 C 10,5 km/h
07.03.2015 10:00 7,6 C 67 % 1035,3 hPa 0,0 l/m 4,1 km/h N 1,8 C 7,6 C 12,1 km/h
07.03.2015 11:00 8,9 C 61 % 1035,3 hPa 0,0 l/m 4,2 km/h N 1,7 C 8,9 C 12,5 km/h
07.03.2015 12:00 8,3 C 62 % 1035,3 hPa 0,0 l/m 4,1 km/h N 1,5 C 8,3 C 11,3 km/h
07.03.2015 13:00 9,7 C 57 % 1034,5 hPa 0,0 l/m 5,9 km/h N 1,6 C 9,6 C 16,1 km/h
07.03.2015 14:00 9,3 C 53 % 1034,1 hPa 0,0 l/m 3,6 km/h N 0,2 C 9,3 C 12,1 km/h
07.03.2015 15:00 9,2 C 53 % 1033,7 hPa 0,0 l/m 1,4 km/h N 0,2 C 9,2 C 7,2 km/h
07.03.2015 16:00 8,8 C 53 % 1033,6 hPa 0,0 l/m 1,0 km/h N -0,2 C 8,8 C 5,2 km/h
07.03.2015 17:00 8,4 C 55 % 1033,6 hPa 0,0 l/m 0,4 km/h N -0,1 C 8,4 C 4,0 km/h
07.03.2015 18:00 7,2 C 59 % 1033,9 hPa 0,0 l/m 0,1 km/h N -0,4 C 7,2 C 2,0 km/h
07.03.2015 19:00 4,7 C 65 % 1034,1 hPa 0,0 l/m 0,0 km/h N -1,3 C 4,7 C 0,0 km/h
07.03.2015 20:00 2,9 C 71 % 1033,9 hPa 0,0 l/m 0,0 km/h N -1,9 C 2,9 C 0,0 km/h
07.03.2015 21:00 1,9 C 75 % 1034,0 hPa 0,0 l/m 0,1 km/h N -2,1 C 1,9 C 1,2 km/h
07.03.2015 22:00 0,9 C 78 % 1033,9 hPa 0,0 l/m 0,1 km/h N -2,6 C 0,9 C 1,2 km/h
07.03.2015 23:00 0,0 C 80 % 1033,6 hPa 0,0 l/m 0,0 km/h N -3,0 C 0,0 C 1,6 km/h
08.03.2015 00:00 -1,0 C 81 % 1033,4 hPa 0,0 l/m 0,0 km/h N -3,8 C -1,0 C 0,0 km/h
08.03.2015 01:00 -2,0 C 83 % 1033,1 hPa 0,0 l/m 0,0 km/h N -4,5 C -2,0 C 0,0 km/h
08.03.2015 02:00 -2,7 C 84 % 1032,8 hPa 0,0 l/m 0,0 km/h N -5,1 C -2,7 C 0,0 km/h
08.03.2015 03:00 -3,3 C 85 % 1032,5 hPa 0,0 l/m 0,0 km/h N -5,5 C -3,3 C 0,0 km/h
08.03.2015 04:00 -3,6 C 85 % 1032,5 hPa 0,0 l/m 0,0 km/h N -5,8 C -3,6 C 0,0 km/h
08.03.2015 05:00 -4,1 C 85 % 1032,4 hPa 0,0 l/m 0,0 km/h N -6,2 C -4,1 C 0,0 km/h
08.03.2015 06:00 -4,5 C 86 % 1032,9 hPa 0,0 l/m 0,0 km/h N -6,5 C -4,5 C 0,0 km/h
08.03.2015 07:00 -4,0 C 86 % 1033,2 hPa 0,0 l/m 0,0 km/h N -6,0 C -4,0 C 0,0 km/h
08.03.2015 08:00 -1,0 C 84 % 1033,0 hPa 0,0 l/m 0,1 km/h N -3,3 C -1,0 C 2,4 km/h
08.03.2015 09:00 3,9 C 80 % 1032,5 hPa 0,0 l/m 3,5 km/h N 0,8 C 3,9 C 10,5 km/h
08.03.2015 10:00 7,8 C 62 % 1032,0 hPa 0,0 l/m 2,8 km/h N 0,8 C 7,8 C 9,3 km/h
08.03.2015 11:00 10,3 C 45 % 1031,6 hPa 0,0 l/m 2,6 km/h N -1,1 C 10,3 C 11,7 km/h
08.03.2015 12:00 10,9 C 42 % 1031,4 hPa 0,0 l/m 3,8 km/h N -1,5 C 10,9 C 14,9 km/h
08.03.2015 13:00 11,4 C 39 % 1030,6 hPa 0,0 l/m 4,2 km/h N -2,0 C 11,4 C 17,3 km/h
08.03.2015 14:00 11,4 C 36 % 1030,0 hPa 0,0 l/m 3,9 km/h N -3,0 C 11,4 C 17,3 km/h
08.03.2015 15:00 11,0 C 36 % 1029,8 hPa 0,0 l/m 3,5 km/h N -3,5 C 11,0 C 16,5 km/h
08.03.2015 16:00 10,2 C 38 % 1029,6 hPa 0,0 l/m 2,4 km/h N -3,4 C 10,2 C 12,5 km/h
08.03.2015 17:00 8,9 C 42 % 1029,9 hPa 0,0 l/m 2,2 km/h N -3,3 C 8,9 C 10,5 km/h
08.03.2015 18:00 7,3 C 46 % 1030,1 hPa 0,0 l/m 0,7 km/h N -3,7 C 7,3 C 6,0 km/h
08.03.2015 19:00 5,4 C 51 % 1029,9 hPa 0,0 l/m 0,1 km/h N -4,0 C 5,4 C 2,4 km/h
08.03.2015 20:00 3,9 C 55 % 1029,9 hPa 0,0 l/m 0,1 km/h N -4,4 C 3,9 C 2,8 km/h
08.03.2015 21:00 2,8 C 58 % 1029,5 hPa 0,0 l/m 0,0 km/h N -4,7 C 2,8 C 0,8 km/h
08.03.2015 22:00 0,9 C 64 % 1028,9 hPa 0,0 l/m 0,3 km/h N -5,2 C 0,9 C 3,2 km/h
08.03.2015 23:00 1,7 C 63 % 1028,4 hPa 0,0 l/m 0,1 km/h N -4,5 C 1,7 C 2,8 km/h
Min-Datum _ 08.03.15 08.03.15 02.03.15 - 02.03.15 - 08.03.15 08.03.15 02.03.15
_ Min-Zeit 06:30 14:00 11:15 - 00:15 - 06:15 06:30 00:15
Minimum _ -4,6 C 36 % 1002,4 hPa - 0,0 km/h - -6,6 C -4,6 C 0,0 km/h
Max-Datum _ 02.03.15 08.03.15 07.03.15 02.03.15 02.03.15 - 02.03.15 08.03.15 02.03.15
_ Max-Zeit 12:15 06:00 07:45 13:00 22:00 - 10:00 13:45 22:00
Maximum _ 13,6 C 86 % 1035,8 hPa 2,1 l/m 23,6 km/h
N
- 6,4 C 11,6 C 53,1 km/h
N
Durchschnitt _ 5,0 C 66 % 1025,8 hPa #2,9 l/m 5,8 km/h N -1,0 C 3,7 C 16,3 km/h